Main page
METAR-TAF:

METAR-TAF

Airports :

Ämari Air Base

Ämari, Estonia

latitude: 59-15-44N, longitude: 24-13-07E, elevation: 20 m

Current weather observation

The report was made 12 hours and 40 minutes ago, at 13:50 UTC
Wind 9 kt from the West/Northwest
Temperature 20°C
Humidity 43%
Pressure 1027 hPa
Visibility 10 km or more
no clouds below 1500 m and no cumulonimbus

METAR: EEEI 211350Z 30009KT CAVOK 20/07 Q1027 NOSIG

Time: 05:30 (02:30 UTC)

Forecast

The report was made 3 hours and 0 minutes ago, at 23:30 UTC
Forecast valid from 22 at 00 UTC to 22 at 24 UTC
Wind 2 kt from variable directions
Visibility 10 km or more
no clouds below 1500 m and no cumulonimbus
Becoming
from 22 at 09 UTC to 22 at 11 UTC
Wind 8 kt from the South/Southeast

TAF: EEEI 212330Z 2200/2224 VRB02KT CAVOK BECMG 2209/2211 15008KT

Weather observations and forecasts of more than 4000 airports (METAR and TAF reports).

The available stations are represented by yellow and red dots on the map.

Hover mouse over dot to see the name of the station.

Then click to see weather observations and forecasts.

To change the map : click on the green buttons with a black cross to zoom in, on the green button with a dash to zoom out, or on the green arrows for adjacent maps.


METAR-TAF: